sensor_id;sensor_type;location;lat;lon;timestamp;pressure;altitude;pressure_sealevel;temperature;humidity
64628;BME280;68467;50.960;0.314;2024-03-17T00:01:20;100239.76;;;10.38;100.00
64628;BME280;68467;50.960;0.314;2024-03-17T00:03:47;100232.25;;;10.96;100.00
64628;BME280;68467;50.960;0.314;2024-03-17T00:06:13;100226.39;;;10.84;100.00
64628;BME280;68467;50.960;0.314;2024-03-17T00:08:41;100232.23;;;10.33;100.00
64628;BME280;68467;50.960;0.314;2024-03-17T00:11:07;100228.08;;;10.79;100.00
64628;BME280;68467;50.960;0.314;2024-03-17T00:13:35;100218.88;;;9.89;100.00
64628;BME280;68467;50.960;0.314;2024-03-17T00:16:02;100212.47;;;10.05;100.00
64628;BME280;68467;50.960;0.314;2024-03-17T00:18:29;100212.12;;;10.61;100.00
64628;BME280;68467;50.960;0.314;2024-03-17T00:20:56;100208.39;;;10.33;100.00
64628;BME280;68467;50.960;0.314;2024-03-17T00:23:23;100202.38;;;10.44;100.00
64628;BME280;68467;50.960;0.314;2024-03-17T00:25:51;100196.13;;;10.47;100.00
64628;BME280;68467;50.960;0.314;2024-03-17T00:28:18;100189.35;;;10.49;100.00
64628;BME280;68467;50.960;0.314;2024-03-17T00:30:45;100185.54;;;10.84;100.00
64628;BME280;68467;50.960;0.314;2024-03-17T00:33:12;100182.91;;;10.72;100.00
64628;BME280;68467;50.960;0.314;2024-03-17T00:35:39;100180.91;;;10.72;100.00
64628;BME280;68467;50.960;0.314;2024-03-17T00:38:06;100174.78;;;10.96;100.00
64628;BME280;68467;50.960;0.314;2024-03-17T00:40:33;100172.74;;;9.84;100.00
64628;BME280;68467;50.960;0.314;2024-03-17T00:43:00;100172.99;;;9.67;100.00
64628;BME280;68467;50.960;0.314;2024-03-17T00:45:27;100172.45;;;9.84;100.00
64628;BME280;68467;50.960;0.314;2024-03-17T00:47:55;100169.84;;;9.74;100.00
64628;BME280;68467;50.960;0.314;2024-03-17T00:50:22;100171.29;;;9.99;100.00
64628;BME280;68467;50.960;0.314;2024-03-17T00:52:49;100168.47;;;9.79;100.00
64628;BME280;68467;50.960;0.314;2024-03-17T00:55:16;100166.03;;;9.76;100.00
64628;BME280;68467;50.960;0.314;2024-03-17T00:57:44;100166.41;;;9.48;100.00
64628;BME280;68467;50.960;0.314;2024-03-17T01:00:12;100158.68;;;10.19;100.00
64628;BME280;68467;50.960;0.314;2024-03-17T01:02:41;100155.93;;;10.22;100.00
64628;BME280;68467;50.960;0.314;2024-03-17T01:05:08;100150.82;;;10.07;100.00
64628;BME280;68467;50.960;0.314;2024-03-17T01:07:35;100144.90;;;9.77;100.00
64628;BME280;68467;50.960;0.314;2024-03-17T01:10:03;100149.31;;;9.84;100.00
64628;BME280;68467;50.960;0.314;2024-03-17T01:12:30;100147.00;;;9.91;100.00
64628;BME280;68467;50.960;0.314;2024-03-17T01:14:58;100142.88;;;10.21;100.00
64628;BME280;68467;50.960;0.314;2024-03-17T01:17:25;100141.19;;;10.10;100.00
64628;BME280;68467;50.960;0.314;2024-03-17T01:19:53;100131.24;;;11.41;100.00
64628;BME280;68467;50.960;0.314;2024-03-17T01:22:20;100119.64;;;11.54;100.00
64628;BME280;68467;50.960;0.314;2024-03-17T01:24:47;100120.29;;;11.78;100.00
64628;BME280;68467;50.960;0.314;2024-03-17T01:27:14;100123.59;;;11.17;100.00
64628;BME280;68467;50.960;0.314;2024-03-17T01:29:42;100120.11;;;11.05;100.00
64628;BME280;68467;50.960;0.314;2024-03-17T01:32:10;100117.89;;;11.40;100.00
64628;BME280;68467;50.960;0.314;2024-03-17T01:34:38;100112.89;;;11.48;100.00
64628;BME280;68467;50.960;0.314;2024-03-17T01:37:06;100107.70;;;11.38;100.00
64628;BME280;68467;50.960;0.314;2024-03-17T01:39:34;100105.86;;;11.43;100.00
64628;BME280;68467;50.960;0.314;2024-03-17T01:42:01;100100.02;;;11.41;100.00
64628;BME280;68467;50.960;0.314;2024-03-17T01:44:29;100098.89;;;11.45;100.00
64628;BME280;68467;50.960;0.314;2024-03-17T01:46:58;100098.23;;;11.07;100.00
64628;BME280;68467;50.960;0.314;2024-03-17T01:49:26;100094.58;;;10.94;100.00
64628;BME280;68467;50.960;0.314;2024-03-17T01:51:54;100088.03;;;10.89;100.00
64628;BME280;68467;50.960;0.314;2024-03-17T01:54:21;100084.29;;;10.98;100.00
64628;BME280;68467;50.960;0.314;2024-03-17T01:56:49;100082.44;;;10.76;100.00
64628;BME280;68467;50.960;0.314;2024-03-17T01:59:16;100078.43;;;10.15;100.00
64628;BME280;68467;50.960;0.314;2024-03-17T02:01:44;100079.59;;;10.16;100.00
64628;BME280;68467;50.960;0.314;2024-03-17T02:04:11;100072.03;;;10.27;100.00
64628;BME280;68467;50.960;0.314;2024-03-17T02:06:38;100068.52;;;10.37;100.00
64628;BME280;68467;50.960;0.314;2024-03-17T02:09:06;100076.94;;;10.45;100.00
64628;BME280;68467;50.960;0.314;2024-03-17T02:11:33;100078.19;;;10.37;100.00
64628;BME280;68467;50.960;0.314;2024-03-17T02:14:00;100070.95;;;10.05;100.00
64628;BME280;68467;50.960;0.314;2024-03-17T02:16:28;100064.68;;;9.81;100.00
64628;BME280;68467;50.960;0.314;2024-03-17T02:18:56;100068.41;;;9.93;100.00
64628;BME280;68467;50.960;0.314;2024-03-17T02:21:25;100068.92;;;9.97;100.00
64628;BME280;68467;50.960;0.314;2024-03-17T02:23:52;100064.92;;;9.83;100.00
64628;BME280;68467;50.960;0.314;2024-03-17T02:26:20;100071.19;;;10.04;100.00
64628;BME280;68467;50.960;0.314;2024-03-17T02:28:48;100070.95;;;10.20;100.00
64628;BME280;68467;50.960;0.314;2024-03-17T02:31:16;100074.31;;;10.05;100.00
64628;BME280;68467;50.960;0.314;2024-03-17T02:33:45;100074.59;;;10.29;100.00
64628;BME280;68467;50.960;0.314;2024-03-17T02:36:12;100066.41;;;10.23;100.00
64628;BME280;68467;50.960;0.314;2024-03-17T02:38:40;100059.36;;;10.48;100.00
64628;BME280;68467;50.960;0.314;2024-03-17T02:41:08;100062.48;;;10.95;100.00
64628;BME280;68467;50.960;0.314;2024-03-17T02:43:35;100065.45;;;10.91;100.00
64628;BME280;68467;50.960;0.314;2024-03-17T02:46:02;100057.68;;;11.00;100.00
64628;BME280;68467;50.960;0.314;2024-03-17T02:48:30;100058.79;;;10.85;100.00
64628;BME280;68467;50.960;0.314;2024-03-17T02:50:57;100058.10;;;10.86;100.00
64628;BME280;68467;50.960;0.314;2024-03-17T02:53:24;100050.41;;;10.84;100.00
64628;BME280;68467;50.960;0.314;2024-03-17T02:55:51;100046.55;;;11.07;100.00
64628;BME280;68467;50.960;0.314;2024-03-17T02:58:19;100046.27;;;10.64;100.00
64628;BME280;68467;50.960;0.314;2024-03-17T03:00:47;100050.93;;;10.85;100.00
64628;BME280;68467;50.960;0.314;2024-03-17T03:03:14;100045.36;;;10.99;100.00
64628;BME280;68467;50.960;0.314;2024-03-17T03:05:41;100044.43;;;11.35;100.00
64628;BME280;68467;50.960;0.314;2024-03-17T03:08:08;100045.75;;;10.80;100.00
64628;BME280;68467;50.960;0.314;2024-03-17T03:10:36;100042.84;;;10.92;100.00
64628;BME280;68467;50.960;0.314;2024-03-17T03:13:04;100039.28;;;10.86;100.00
64628;BME280;68467;50.960;0.314;2024-03-17T03:15:33;100034.84;;;11.45;100.00
64628;BME280;68467;50.960;0.314;2024-03-17T03:18:00;100029.69;;;11.69;100.00
64628;BME280;68467;50.960;0.314;2024-03-17T03:20:28;100023.31;;;11.53;100.00
64628;BME280;68467;50.960;0.314;2024-03-17T03:22:55;100026.57;;;11.02;100.00
64628;BME280;68467;50.960;0.314;2024-03-17T03:25:23;100022.52;;;11.45;100.00
64628;BME280;68467;50.960;0.314;2024-03-17T03:27:50;100019.77;;;11.88;100.00
64628;BME280;68467;50.960;0.314;2024-03-17T03:30:17;100011.78;;;12.13;100.00
64628;BME280;68467;50.960;0.314;2024-03-17T03:32:44;100012.95;;;11.83;100.00
64628;BME280;68467;50.960;0.314;2024-03-17T03:35:12;100010.13;;;12.38;100.00
64628;BME280;68467;50.960;0.314;2024-03-17T03:37:39;100009.87;;;11.50;100.00
64628;BME280;68467;50.960;0.314;2024-03-17T03:40:08;100010.67;;;11.93;100.00
64628;BME280;68467;50.960;0.314;2024-03-17T03:42:36;100009.08;;;11.79;100.00
64628;BME280;68467;50.960;0.314;2024-03-17T03:45:04;100004.12;;;11.57;100.00
64628;BME280;68467;50.960;0.314;2024-03-17T03:47:31;100000.73;;;11.67;100.00
64628;BME280;68467;50.960;0.314;2024-03-17T03:49:59;99994.12;;;11.72;100.00
64628;BME280;68467;50.960;0.314;2024-03-17T03:52:26;99994.86;;;11.46;100.00
64628;BME280;68467;50.960;0.314;2024-03-17T03:54:54;99997.23;;;11.47;100.00
64628;BME280;68467;50.960;0.314;2024-03-17T03:57:21;99994.95;;;10.95;100.00
64628;BME280;68467;50.960;0.314;2024-03-17T03:59:49;99992.18;;;11.31;100.00
64628;BME280;68467;50.960;0.314;2024-03-17T04:02:16;99984.05;;;11.16;100.00
64628;BME280;68467;50.960;0.314;2024-03-17T04:04:43;99984.86;;;10.78;100.00
64628;BME280;68467;50.960;0.314;2024-03-17T04:07:10;99982.65;;;11.40;100.00
64628;BME280;68467;50.960;0.314;2024-03-17T04:09:37;99980.86;;;11.01;100.00
64628;BME280;68467;50.960;0.314;2024-03-17T04:12:04;99979.33;;;11.34;100.00
64628;BME280;68467;50.960;0.314;2024-03-17T04:14:31;99967.86;;;11.20;100.00
64628;BME280;68467;50.960;0.314;2024-03-17T04:16:58;99962.87;;;11.13;100.00
64628;BME280;68467;50.960;0.314;2024-03-17T04:19:26;99963.23;;;10.78;100.00
64628;BME280;68467;50.960;0.314;2024-03-17T04:21:54;99962.12;;;11.44;100.00
64628;BME280;68467;50.960;0.314;2024-03-17T04:24:21;99965.62;;;11.71;100.00
64628;BME280;68467;50.960;0.314;2024-03-17T04:26:48;99962.92;;;11.67;100.00
64628;BME280;68467;50.960;0.314;2024-03-17T04:29:15;99960.05;;;11.87;100.00
64628;BME280;68467;50.960;0.314;2024-03-17T04:31:42;99965.27;;;12.06;100.00
64628;BME280;68467;50.960;0.314;2024-03-17T04:34:09;99962.31;;;11.87;100.00
64628;BME280;68467;50.960;0.314;2024-03-17T04:36:36;99964.86;;;11.87;100.00
64628;BME280;68467;50.960;0.314;2024-03-17T04:39:03;99964.82;;;11.58;100.00
64628;BME280;68467;50.960;0.314;2024-03-17T04:41:30;99962.32;;;11.57;100.00
64628;BME280;68467;50.960;0.314;2024-03-17T04:43:57;99955.68;;;11.88;100.00
64628;BME280;68467;50.960;0.314;2024-03-17T04:46:25;99952.27;;;12.06;100.00
64628;BME280;68467;50.960;0.314;2024-03-17T04:48:52;99950.04;;;11.76;100.00
64628;BME280;68467;50.960;0.314;2024-03-17T04:51:19;99951.36;;;11.86;100.00
64628;BME280;68467;50.960;0.314;2024-03-17T04:53:46;99951.57;;;12.14;100.00
64628;BME280;68467;50.960;0.314;2024-03-17T04:56:13;99954.66;;;12.17;100.00
64628;BME280;68467;50.960;0.314;2024-03-17T04:58:40;99948.00;;;11.98;100.00
64628;BME280;68467;50.960;0.314;2024-03-17T05:01:08;99947.75;;;11.89;100.00
64628;BME280;68467;50.960;0.314;2024-03-17T05:03:36;99947.99;;;11.71;100.00
64628;BME280;68467;50.960;0.314;2024-03-17T05:06:04;99950.13;;;12.13;100.00
64628;BME280;68467;50.960;0.314;2024-03-17T05:08:32;99945.10;;;11.86;100.00
64628;BME280;68467;50.960;0.314;2024-03-17T05:11:01;99943.39;;;12.35;100.00
64628;BME280;68467;50.960;0.314;2024-03-17T05:13:29;99942.91;;;12.06;100.00
64628;BME280;68467;50.960;0.314;2024-03-17T05:15:56;99940.40;;;11.83;100.00
64628;BME280;68467;50.960;0.314;2024-03-17T05:18:23;99941.38;;;11.67;100.00
64628;BME280;68467;50.960;0.314;2024-03-17T05:20:57;99944.78;;;11.87;100.00
64628;BME280;68467;50.960;0.314;2024-03-17T05:23:25;99949.89;;;11.71;100.00
64628;BME280;68467;50.960;0.314;2024-03-17T05:25:52;99948.99;;;11.62;100.00
64628;BME280;68467;50.960;0.314;2024-03-17T05:28:20;99950.10;;;11.35;100.00
64628;BME280;68467;50.960;0.314;2024-03-17T05:30:47;99946.83;;;11.49;100.00
64628;BME280;68467;50.960;0.314;2024-03-17T05:33:14;99942.69;;;11.02;100.00
64628;BME280;68467;50.960;0.314;2024-03-17T05:35:48;99943.48;;;11.04;100.00
64628;BME280;68467;50.960;0.314;2024-03-17T05:38:16;99946.72;;;10.98;100.00
64628;BME280;68467;50.960;0.314;2024-03-17T05:40:43;99945.79;;;10.93;100.00
64628;BME280;68467;50.960;0.314;2024-03-17T05:43:10;99943.28;;;10.99;100.00
64628;BME280;68467;50.960;0.314;2024-03-17T05:45:37;99942.20;;;11.05;100.00
64628;BME280;68467;50.960;0.314;2024-03-17T05:48:05;99940.66;;;11.03;100.00
64628;BME280;68467;50.960;0.314;2024-03-17T05:50:32;99939.96;;;11.21;100.00
64628;BME280;68467;50.960;0.314;2024-03-17T05:52:59;99941.39;;;10.57;100.00
64628;BME280;68467;50.960;0.314;2024-03-17T05:55:26;99934.10;;;10.62;100.00
64628;BME280;68467;50.960;0.314;2024-03-17T05:57:53;99935.85;;;10.83;100.00
64628;BME280;68467;50.960;0.314;2024-03-17T06:00:21;99939.66;;;10.59;100.00
64628;BME280;68467;50.960;0.314;2024-03-17T06:02:48;99940.09;;;11.11;100.00
64628;BME280;68467;50.960;0.314;2024-03-17T06:05:15;99943.55;;;11.13;100.00
64628;BME280;68467;50.960;0.314;2024-03-17T06:07:42;99939.90;;;11.13;100.00
64628;BME280;68467;50.960;0.314;2024-03-17T06:10:10;99936.63;;;11.27;100.00
64628;BME280;68467;50.960;0.314;2024-03-17T06:12:37;99943.47;;;11.21;100.00
64628;BME280;68467;50.960;0.314;2024-03-17T06:15:05;99947.85;;;11.14;100.00
64628;BME280;68467;50.960;0.314;2024-03-17T06:17:32;99947.90;;;11.23;100.00
64628;BME280;68467;50.960;0.314;2024-03-17T06:20:00;99949.15;;;11.20;100.00
64628;BME280;68467;50.960;0.314;2024-03-17T06:22:27;99948.28;;;11.06;100.00
64628;BME280;68467;50.960;0.314;2024-03-17T06:24:54;99948.85;;;10.85;100.00
64628;BME280;68467;50.960;0.314;2024-03-17T06:27:22;99942.25;;;11.20;100.00
64628;BME280;68467;50.960;0.314;2024-03-17T06:29:50;99943.75;;;10.55;100.00
64628;BME280;68467;50.960;0.314;2024-03-17T06:32:16;99942.65;;;10.18;100.00
64628;BME280;68467;50.960;0.314;2024-03-17T06:34:43;99944.51;;;10.67;100.00
64628;BME280;68467;50.960;0.314;2024-03-17T06:37:10;99940.25;;;10.82;100.00
64628;BME280;68467;50.960;0.314;2024-03-17T06:39:37;99944.49;;;10.66;100.00
64628;BME280;68467;50.960;0.314;2024-03-17T06:42:05;99944.05;;;10.71;100.00
64628;BME280;68467;50.960;0.314;2024-03-17T06:44:32;99940.19;;;10.99;100.00
64628;BME280;68467;50.960;0.314;2024-03-17T06:46:59;99935.18;;;11.12;100.00
64628;BME280;68467;50.960;0.314;2024-03-17T06:49:26;99937.45;;;10.73;100.00
64628;BME280;68467;50.960;0.314;2024-03-17T06:51:53;99940.49;;;10.46;100.00
64628;BME280;68467;50.960;0.314;2024-03-17T06:54:20;99934.24;;;10.48;100.00
64628;BME280;68467;50.960;0.314;2024-03-17T06:56:47;99930.11;;;10.50;100.00
64628;BME280;68467;50.960;0.314;2024-03-17T06:59:14;99930.32;;;10.27;100.00
64628;BME280;68467;50.960;0.314;2024-03-17T07:01:41;99929.88;;;10.00;100.00
64628;BME280;68467;50.960;0.314;2024-03-17T07:04:08;99927.14;;;10.17;100.00
64628;BME280;68467;50.960;0.314;2024-03-17T07:06:36;99922.87;;;10.50;100.00
64628;BME280;68467;50.960;0.314;2024-03-17T07:09:02;99926.07;;;10.34;100.00
64628;BME280;68467;50.960;0.314;2024-03-17T07:11:29;99922.35;;;10.23;100.00
64628;BME280;68467;50.960;0.314;2024-03-17T07:13:56;99919.07;;;10.30;100.00
64628;BME280;68467;50.960;0.314;2024-03-17T07:16:24;99916.48;;;10.65;100.00
64628;BME280;68467;50.960;0.314;2024-03-17T07:18:51;99917.79;;;10.47;100.00
64628;BME280;68467;50.960;0.314;2024-03-17T07:21:18;99920.12;;;10.05;100.00
64628;BME280;68467;50.960;0.314;2024-03-17T07:23:46;99915.11;;;10.50;100.00
64628;BME280;68467;50.960;0.314;2024-03-17T07:26:13;99913.25;;;10.19;100.00
64628;BME280;68467;50.960;0.314;2024-03-17T07:28:40;99917.65;;;10.07;100.00
64628;BME280;68467;50.960;0.314;2024-03-17T07:31:09;99917.76;;;10.34;100.00
64628;BME280;68467;50.960;0.314;2024-03-17T07:33:36;99918.47;;;9.50;100.00
64628;BME280;68467;50.960;0.314;2024-03-17T07:36:04;99912.54;;;9.89;100.00
64628;BME280;68467;50.960;0.314;2024-03-17T07:38:31;99914.74;;;9.81;100.00
64628;BME280;68467;50.960;0.314;2024-03-17T07:41:00;99906.66;;;10.15;100.00
64628;BME280;68467;50.960;0.314;2024-03-17T07:43:29;99912.71;;;9.81;100.00
64628;BME280;68467;50.960;0.314;2024-03-17T07:45:59;99910.59;;;10.16;100.00
64628;BME280;68467;50.960;0.314;2024-03-17T07:48:27;99906.09;;;9.81;100.00
64628;BME280;68467;50.960;0.314;2024-03-17T07:50:55;99904.53;;;9.91;100.00
64628;BME280;68467;50.960;0.314;2024-03-17T07:53:22;99904.07;;;9.92;100.00
64628;BME280;68467;50.960;0.314;2024-03-17T07:55:57;99899.03;;;10.00;100.00
64628;BME280;68467;50.960;0.314;2024-03-17T07:58:24;99893.03;;;10.28;100.00
64628;BME280;68467;50.960;0.314;2024-03-17T08:00:51;99892.12;;;9.89;100.00
64628;BME280;68467;50.960;0.314;2024-03-17T08:03:18;99888.51;;;10.19;100.00
64628;BME280;68467;50.960;0.314;2024-03-17T08:05:48;99885.59;;;10.27;100.00
64628;BME280;68467;50.960;0.314;2024-03-17T08:08:16;99888.25;;;10.39;100.00
64628;BME280;68467;50.960;0.314;2024-03-17T08:10:44;99887.55;;;10.05;100.00
64628;BME280;68467;50.960;0.314;2024-03-17T08:13:11;99884.92;;;9.92;100.00
64628;BME280;68467;50.960;0.314;2024-03-17T08:15:38;99880.99;;;9.80;100.00
64628;BME280;68467;50.960;0.314;2024-03-17T08:18:05;99885.32;;;9.48;100.00
64628;BME280;68467;50.960;0.314;2024-03-17T08:20:32;99880.56;;;9.82;100.00
64628;BME280;68467;50.960;0.314;2024-03-17T08:22:59;99883.44;;;9.85;100.00
64628;BME280;68467;50.960;0.314;2024-03-17T08:25:26;99877.30;;;9.98;100.00
64628;BME280;68467;50.960;0.314;2024-03-17T08:27:52;99882.50;;;9.82;100.00
64628;BME280;68467;50.960;0.314;2024-03-17T08:30:19;99875.45;;;9.81;100.00
64628;BME280;68467;50.960;0.314;2024-03-17T08:32:47;99879.74;;;9.72;100.00
64628;BME280;68467;50.960;0.314;2024-03-17T08:35:14;99879.61;;;9.89;100.00
64628;BME280;68467;50.960;0.314;2024-03-17T08:37:41;99875.24;;;9.77;100.00
64628;BME280;68467;50.960;0.314;2024-03-17T08:40:08;99880.65;;;9.51;100.00
64628;BME280;68467;50.960;0.314;2024-03-17T08:42:35;99878.69;;;9.51;100.00
64628;BME280;68467;50.960;0.314;2024-03-17T08:45:03;99880.19;;;9.42;100.00
64628;BME280;68467;50.960;0.314;2024-03-17T08:47:32;99880.72;;;9.35;100.00
64628;BME280;68467;50.960;0.314;2024-03-17T08:49:59;99881.13;;;9.45;100.00
64628;BME280;68467;50.960;0.314;2024-03-17T08:52:26;99882.29;;;9.40;100.00
64628;BME280;68467;50.960;0.314;2024-03-17T08:54:53;99875.01;;;9.49;100.00
64628;BME280;68467;50.960;0.314;2024-03-17T08:57:20;99878.71;;;9.38;100.00
64628;BME280;68467;50.960;0.314;2024-03-17T08:59:47;99872.71;;;9.44;100.00
64628;BME280;68467;50.960;0.314;2024-03-17T09:02:15;99857.25;;;9.46;100.00
64628;BME280;68467;50.960;0.314;2024-03-17T09:04:42;99869.91;;;9.91;100.00
64628;BME280;68467;50.960;0.314;2024-03-17T09:07:10;99869.96;;;9.88;100.00
64628;BME280;68467;50.960;0.314;2024-03-17T09:09:37;99867.76;;;9.67;100.00
64628;BME280;68467;50.960;0.314;2024-03-17T09:12:04;99863.93;;;9.66;100.00
64628;BME280;68467;50.960;0.314;2024-03-17T09:14:31;99866.06;;;9.77;100.00
64628;BME280;68467;50.960;0.314;2024-03-17T09:16:59;99859.09;;;9.73;100.00
64628;BME280;68467;50.960;0.314;2024-03-17T09:19:26;99861.94;;;9.20;100.00
64628;BME280;68467;50.960;0.314;2024-03-17T09:21:53;99856.36;;;9.30;100.00
64628;BME280;68467;50.960;0.314;2024-03-17T09:24:20;99848.16;;;9.52;100.00
64628;BME280;68467;50.960;0.314;2024-03-17T09:26:47;99853.66;;;9.82;100.00
64628;BME280;68467;50.960;0.314;2024-03-17T09:29:14;99849.32;;;9.39;100.00
64628;BME280;68467;50.960;0.314;2024-03-17T09:31:41;99846.73;;;9.30;100.00
64628;BME280;68467;50.960;0.314;2024-03-17T09:34:09;99847.39;;;9.54;100.00
64628;BME280;68467;50.960;0.314;2024-03-17T09:36:36;99847.08;;;9.68;100.00
64628;BME280;68467;50.960;0.314;2024-03-17T09:39:03;99836.35;;;10.28;100.00
64628;BME280;68467;50.960;0.314;2024-03-17T09:41:30;99832.32;;;9.70;100.00
64628;BME280;68467;50.960;0.314;2024-03-17T09:43:58;99832.91;;;9.61;100.00
64628;BME280;68467;50.960;0.314;2024-03-17T09:46:27;99828.08;;;9.68;100.00
64628;BME280;68467;50.960;0.314;2024-03-17T09:48:54;99817.26;;;9.53;100.00
64628;BME280;68467;50.960;0.314;2024-03-17T09:51:23;99816.56;;;9.27;100.00
64628;BME280;68467;50.960;0.314;2024-03-17T09:53:50;99823.14;;;9.34;100.00
64628;BME280;68467;50.960;0.314;2024-03-17T09:56:20;99822.06;;;9.82;100.00
64628;BME280;68467;50.960;0.314;2024-03-17T09:58:48;99824.47;;;9.47;100.00
64628;BME280;68467;50.960;0.314;2024-03-17T10:01:17;99818.87;;;9.22;100.00
64628;BME280;68467;50.960;0.314;2024-03-17T10:03:45;99828.34;;;9.41;100.00
64628;BME280;68467;50.960;0.314;2024-03-17T10:06:13;99827.39;;;9.82;100.00
64628;BME280;68467;50.960;0.314;2024-03-17T10:08:43;99818.18;;;9.71;100.00
64628;BME280;68467;50.960;0.314;2024-03-17T10:11:11;99819.78;;;10.27;100.00
64628;BME280;68467;50.960;0.314;2024-03-17T10:13:38;99815.52;;;9.98;100.00
64628;BME280;68467;50.960;0.314;2024-03-17T10:16:06;99813.56;;;9.94;100.00
64628;BME280;68467;50.960;0.314;2024-03-17T10:18:33;99813.32;;;10.03;100.00
64628;BME280;68467;50.960;0.314;2024-03-17T10:21:00;99808.80;;;10.16;100.00
64628;BME280;68467;50.960;0.314;2024-03-17T10:23:28;99811.18;;;9.63;100.00
64628;BME280;68467;50.960;0.314;2024-03-17T10:25:55;99806.12;;;10.00;100.00
64628;BME280;68467;50.960;0.314;2024-03-17T10:28:22;99792.95;;;9.93;100.00
64628;BME280;68467;50.960;0.314;2024-03-17T10:31:07;99805.35;;;9.80;100.00
64628;BME280;68467;50.960;0.314;2024-03-17T10:33:34;99813.02;;;9.71;100.00
64628;BME280;68467;50.960;0.314;2024-03-17T10:36:02;99804.70;;;9.65;100.00
64628;BME280;68467;50.960;0.314;2024-03-17T10:38:29;99814.23;;;9.79;100.00
64628;BME280;68467;50.960;0.314;2024-03-17T10:40:56;99808.36;;;10.05;100.00
64628;BME280;68467;50.960;0.314;2024-03-17T10:43:24;99812.42;;;10.10;100.00
64628;BME280;68467;50.960;0.314;2024-03-17T10:45:52;99812.63;;;9.86;100.00
64628;BME280;68467;50.960;0.314;2024-03-17T10:48:20;99808.26;;;9.58;100.00
64628;BME280;68467;50.960;0.314;2024-03-17T10:50:49;99811.77;;;9.82;100.00
64628;BME280;68467;50.960;0.314;2024-03-17T10:53:19;99812.79;;;9.83;100.00
64628;BME280;68467;50.960;0.314;2024-03-17T10:55:48;99806.06;;;10.00;100.00
64628;BME280;68467;50.960;0.314;2024-03-17T10:58:23;99798.68;;;9.96;100.00
64628;BME280;68467;50.960;0.314;2024-03-17T11:00:56;99792.49;;;9.96;100.00
64628;BME280;68467;50.960;0.314;2024-03-17T11:03:23;99798.12;;;10.19;100.00
64628;BME280;68467;50.960;0.314;2024-03-17T11:05:51;99793.88;;;9.89;100.00
64628;BME280;68467;50.960;0.314;2024-03-17T11:08:19;99796.94;;;10.16;100.00
64628;BME280;68467;50.960;0.314;2024-03-17T11:10:50;99791.61;;;10.07;100.00
64628;BME280;68467;50.960;0.314;2024-03-17T11:13:23;99795.76;;;10.35;100.00
64628;BME280;68467;50.960;0.314;2024-03-17T11:15:51;99799.04;;;10.51;100.00
64628;BME280;68467;50.960;0.314;2024-03-17T11:18:29;99794.76;;;10.92;100.00
64628;BME280;68467;50.960;0.314;2024-03-17T11:21:00;99795.09;;;10.65;100.00
64628;BME280;68467;50.960;0.314;2024-03-17T11:23:28;99788.18;;;10.74;100.00
64628;BME280;68467;50.960;0.314;2024-03-17T11:25:57;99792.29;;;10.30;100.00
64628;BME280;68467;50.960;0.314;2024-03-17T11:28:55;99789.97;;;10.54;100.00
64628;BME280;68467;50.960;0.314;2024-03-17T11:31:40;99786.52;;;11.01;100.00
64628;BME280;68467;50.960;0.314;2024-03-17T11:34:28;99783.88;;;11.28;100.00
64628;BME280;68467;50.960;0.314;2024-03-17T11:36:56;99780.04;;;10.93;100.00
64628;BME280;68467;50.960;0.314;2024-03-17T11:39:56;99777.25;;;11.29;100.00
64628;BME280;68467;50.960;0.314;2024-03-17T11:42:24;99764.60;;;11.04;100.00
64628;BME280;68467;50.960;0.314;2024-03-17T11:45:01;99776.97;;;10.85;100.00
64628;BME280;68467;50.960;0.314;2024-03-17T11:47:36;99775.64;;;11.30;100.00
64628;BME280;68467;50.960;0.314;2024-03-17T11:50:06;99776.47;;;11.26;100.00
64628;BME280;68467;50.960;0.314;2024-03-17T11:52:33;99775.69;;;11.53;100.00
64628;BME280;68467;50.960;0.314;2024-03-17T11:55:01;99766.41;;;11.39;100.00
64628;BME280;68467;50.960;0.314;2024-03-17T11:57:29;99775.81;;;11.26;100.00
64628;BME280;68467;50.960;0.314;2024-03-17T11:59:57;99776.27;;;11.35;100.00
64628;BME280;68467;50.960;0.314;2024-03-17T12:02:26;99775.67;;;11.74;100.00
64628;BME280;68467;50.960;0.314;2024-03-17T12:04:56;99766.63;;;12.28;100.00
64628;BME280;68467;50.960;0.314;2024-03-17T12:07:24;99764.04;;;12.25;100.00
64628;BME280;68467;50.960;0.314;2024-03-17T12:09:51;99769.85;;;11.69;100.00
64628;BME280;68467;50.960;0.314;2024-03-17T12:12:20;99771.54;;;12.42;100.00
64628;BME280;68467;50.960;0.314;2024-03-17T12:14:49;99765.11;;;12.17;100.00
64628;BME280;68467;50.960;0.314;2024-03-17T12:17:22;99767.34;;;12.90;100.00
64628;BME280;68467;50.960;0.314;2024-03-17T12:19:49;99768.75;;;13.33;100.00
64628;BME280;68467;50.960;0.314;2024-03-17T12:22:18;99768.79;;;12.72;100.00
64628;BME280;68467;50.960;0.314;2024-03-17T12:24:45;99769.43;;;12.40;100.00
64628;BME280;68467;50.960;0.314;2024-03-17T12:27:17;99765.57;;;13.16;100.00
64628;BME280;68467;50.960;0.314;2024-03-17T12:29:45;99764.79;;;13.37;100.00
64628;BME280;68467;50.960;0.314;2024-03-17T12:32:14;99764.71;;;12.68;100.00
64628;BME280;68467;50.960;0.314;2024-03-17T12:34:43;99761.80;;;13.01;100.00
64628;BME280;68467;50.960;0.314;2024-03-17T12:37:16;99754.26;;;13.58;100.00
64628;BME280;68467;50.960;0.314;2024-03-17T12:39:44;99754.58;;;12.41;100.00
64628;BME280;68467;50.960;0.314;2024-03-17T12:42:12;99749.50;;;12.87;100.00
64628;BME280;68467;50.960;0.314;2024-03-17T12:44:46;99748.01;;;13.40;100.00
64628;BME280;68467;50.960;0.314;2024-03-17T12:47:15;99744.06;;;12.75;100.00
64628;BME280;68467;50.960;0.314;2024-03-17T12:49:45;99746.37;;;13.02;100.00
64628;BME280;68467;50.960;0.314;2024-03-17T12:52:19;99744.43;;;12.61;100.00
64628;BME280;68467;50.960;0.314;2024-03-17T12:54:58;99736.74;;;13.48;100.00